Time;durP1;ratioP1;P1;durP2;ratioP2;P2;SDS_P1;SDS_P2;PMS_P1;PMS_P2;Temp;Humidity;BMP_temperature;BMP_pressure;BME280_temperature;BME280_humidity;BME280_pressure;Samples;Min_cycle;Max_cycle;Signal;HPM_P1;HPM_P2
2021/12/22 00:01:00;;;;;;;55.78;38.55;;;;;;;-5.98;100.00;96229.38;6178035;23;20001;-63
2021/12/22 00:03:26;;;;;;;63.80;43.30;;;;;;;-5.97;100.00;96233.66;6177866;23;20506;-63
2021/12/22 00:05:52;;;;;;;56.33;40.25;;;;;;;-5.99;100.00;96237.94;6178019;23;20088;-63
2021/12/22 00:08:18;;;;;;;59.40;40.40;;;;;;;-6.05;100.00;96248.34;6175939;23;20009;-63
2021/12/22 00:10:47;;;;;;;55.55;39.85;;;;;;;-6.10;100.00;96242.47;6177878;23;20379;-63
2021/12/22 00:13:12;;;;;;;52.05;38.15;;;;;;;-6.13;100.00;96250.22;6178655;23;20008;-63
2021/12/22 00:15:38;;;;;;;50.30;38.08;;;;;;;-6.14;100.00;96251.91;6179216;23;20376;-63
2021/12/22 00:18:04;;;;;;;46.75;35.38;;;;;;;-6.12;100.00;96260.44;6179158;23;20001;-63
2021/12/22 00:20:30;;;;;;;54.25;36.53;;;;;;;-6.19;99.74;96259.72;6179991;23;20012;-63
2021/12/22 00:22:56;;;;;;;48.33;34.53;;;;;;;-6.21;99.60;96258.03;6179294;23;20012;-63
2021/12/22 00:25:25;;;;;;;44.65;33.88;;;;;;;-6.17;100.00;96267.34;6179171;23;20009;-63
2021/12/22 00:27:55;;;;;;;41.13;30.05;;;;;;;-6.17;100.00;96264.78;6153089;23;20009;-63
2021/12/22 00:30:21;;;;;;;43.70;30.38;;;;;;;-6.19;100.00;96266.53;6179297;23;20009;-63
2021/12/22 00:32:51;;;;;;;42.47;31.52;;;;;;;-6.22;100.00;96256.34;6179084;23;20062;-63
2021/12/22 00:35:21;;;;;;;54.78;35.25;;;;;;;-6.20;100.00;96249.47;6179225;23;20005;-63
2021/12/22 00:37:47;;;;;;;44.10;32.50;;;;;;;-6.24;100.00;96252.97;6179117;23;20005;-63
2021/12/22 00:40:13;;;;;;;46.70;32.78;;;;;;;-6.27;100.00;96240.19;6179067;23;20012;-63
2021/12/22 00:42:38;;;;;;;48.17;34.05;;;;;;;-6.27;100.00;96235.06;6178569;23;20005;-63
2021/12/22 00:45:04;;;;;;;48.45;33.17;;;;;;;-6.28;100.00;96229.09;6179101;23;20682;-63
2021/12/22 00:47:31;;;;;;;44.97;32.47;;;;;;;-6.28;100.00;96216.28;6179064;23;20804;-63
2021/12/22 00:49:58;;;;;;;47.90;33.40;;;;;;;-6.28;100.00;96220.56;6179256;23;20085;-63
2021/12/22 00:52:25;;;;;;;47.90;32.47;;;;;;;-6.30;100.00;96215.47;6178949;23;20034;-63
2021/12/22 00:54:50;;;;;;;41.58;32.53;;;;;;;-6.31;100.00;96218.03;6179421;23;20502;-63
2021/12/22 00:57:17;;;;;;;41.03;29.05;;;;;;;-6.34;100.00;96212.09;6179066;23;20005;-63
2021/12/22 00:59:44;;;;;;;36.65;27.60;;;;;;;-6.34;100.00;96212.09;6179336;23;20036;-63
2021/12/22 01:02:11;;;;;;;31.75;24.38;;;;;;;-6.30;100.00;96217.16;6179007;23;20009;-63
2021/12/22 01:04:37;;;;;;;39.78;28.63;;;;;;;-6.31;100.00;96223.16;6178892;23;20135;-63
2021/12/22 01:07:03;;;;;;;37.08;27.52;;;;;;;-6.35;99.62;96227.50;6178742;23;20025;-63
2021/12/22 01:09:29;;;;;;;28.73;21.65;;;;;;;-6.36;100.00;96229.22;6152124;22;20391;-63
2021/12/22 01:11:54;;;;;;;31.25;22.08;;;;;;;-6.35;100.00;96232.63;6178964;23;20005;-64
2021/12/22 01:14:21;;;;;;;36.17;26.10;;;;;;;-6.35;100.00;96238.59;6179047;23;20054;-63
2021/12/22 01:16:49;;;;;;;32.05;23.77;;;;;;;-6.35;100.00;96243.72;6179063;23;20118;-63
2021/12/22 01:19:23;;;;;;;30.00;22.70;;;;;;;-6.30;100.00;96250.47;6178936;23;20364;-63
2021/12/22 01:21:57;;;;;;;33.28;24.70;;;;;;;-6.27;100.00;96250.44;6179085;23;20058;-63
2021/12/22 01:24:31;;;;;;;38.90;25.55;;;;;;;-6.30;99.70;96243.66;6179190;23;20079;-63
2021/12/22 01:27:05;;;;;;;35.08;25.08;;;;;;;-6.36;99.88;96242.03;6179069;23;20009;-63
2021/12/22 01:29:35;;;;;;;39.28;24.65;;;;;;;-6.36;99.84;96247.16;6179151;23;20009;-63
2021/12/22 01:32:01;;;;;;;35.97;26.15;;;;;;;-6.37;100.00;96237.78;6179090;23;20016;-63
2021/12/22 01:34:27;;;;;;;37.63;26.85;;;;;;;-6.39;99.57;96229.28;6178864;23;20001;-63
2021/12/22 01:36:53;;;;;;;37.10;27.83;;;;;;;-6.38;99.94;96230.13;6178784;23;20047;-63
2021/12/22 01:39:18;;;;;;;42.45;27.38;;;;;;;-6.41;99.92;96236.13;6178820;23;20005;-63
2021/12/22 01:41:44;;;;;;;34.10;25.63;;;;;;;-6.40;100.00;96237.84;6179166;23;20001;-63
2021/12/22 01:44:10;;;;;;;39.42;26.67;;;;;;;-6.45;99.92;96244.75;6178801;23;20005;-63
2021/12/22 01:49:15;;;;;;;36.05;26.20;;;;;;;-6.47;100.00;96247.31;6178423;23;20020;-63
2021/12/22 01:51:50;;;;;;;34.30;24.58;;;;;;;-6.53;99.93;96255.13;6178957;23;20015;-63
2021/12/22 01:54:19;;;;;;;32.55;22.27;;;;;;;-6.56;100.00;96251.75;6178879;23;20115;-63
2021/12/22 01:56:46;;;;;;;31.92;21.73;;;;;;;-6.59;100.00;96257.78;6178700;23;20005;-63
2021/12/22 01:59:12;;;;;;;30.05;21.52;;;;;;;-6.54;100.00;96255.13;6178953;23;20347;-63
2021/12/22 02:01:38;;;;;;;31.92;22.30;;;;;;;-6.54;100.00;96255.13;6178359;23;20005;-63
2021/12/22 02:04:10;;;;;;;31.38;22.35;;;;;;;-6.54;100.00;96256.00;6178074;23;20034;-63
2021/12/22 02:06:39;;;;;;;24.42;19.20;;;;;;;-6.55;100.00;96259.44;6179143;23;20028;-63
2021/12/22 02:09:05;;;;;;;33.13;22.95;;;;;;;-6.53;100.00;96267.06;6178280;23;20041;-63
2021/12/22 02:11:30;;;;;;;37.22;25.10;;;;;;;-6.46;100.00;96268.69;6179115;23;20139;-63
2021/12/22 02:14:00;;;;;;;33.83;23.35;;;;;;;-6.45;100.00;96269.53;6178849;23;20050;-63
2021/12/22 02:16:29;;;;;;;33.67;23.33;;;;;;;-6.48;100.00;96275.56;6178690;23;20009;-63
2021/12/22 02:18:55;;;;;;;32.33;22.75;;;;;;;-6.52;100.00;96273.88;6178463;23;19997;-63
2021/12/22 02:21:25;;;;;;;47.15;28.02;;;;;;;-6.53;100.00;96269.63;6178763;23;20036;-63
2021/12/22 02:23:51;;;;;;;37.35;25.38;;;;;;;-6.58;99.74;96289.34;6178672;23;20089;-62
2021/12/22 02:26:22;;;;;;;40.85;25.27;;;;;;;-6.58;100.00;96279.97;6178790;23;20012;-63
2021/12/22 02:28:56;;;;;;;35.90;23.92;;;;;;;-6.55;100.00;96292.72;6178725;23;20013;-63
2021/12/22 02:31:21;;;;;;;32.78;20.67;;;;;;;-6.53;100.00;96291.00;6178323;23;20009;-62
2021/12/22 02:33:49;;;;;;;30.20;21.05;;;;;;;-6.49;100.00;96284.94;6178643;23;20487;-63
2021/12/22 02:36:23;;;;;;;34.50;23.02;;;;;;;-6.49;100.00;96284.13;6178501;23;20005;-63
2021/12/22 02:38:59;;;;;;;37.55;23.20;;;;;;;-6.47;100.00;96284.94;6178765;23;20034;-63
2021/12/22 02:41:28;;;;;;;26.00;20.00;;;;;;;-6.52;99.92;96285.00;6179100;23;20011;-63
2021/12/22 02:43:56;;;;;;;28.35;21.05;;;;;;;-6.58;99.52;96287.66;6178398;23;20636;-63
2021/12/22 02:46:25;;;;;;;29.27;22.20;;;;;;;-6.62;100.00;96289.41;6178606;23;20445;-63
2021/12/22 02:48:51;;;;;;;34.53;22.02;;;;;;;-6.64;100.00;96278.34;6178608;23;20005;-62
2021/12/22 02:51:18;;;;;;;31.20;21.80;;;;;;;-6.66;100.00;96274.97;6178504;23;20475;-63
2021/12/22 02:53:59;;;;;;;31.38;22.02;;;;;;;-6.68;100.00;96276.69;6178460;23;20005;-63
2021/12/22 02:56:31;;;;;;;29.63;19.35;;;;;;;-6.69;100.00;96271.59;6178461;23;20008;-63
2021/12/22 03:04:02;;;;;;;27.00;19.02;;;;;;;-6.74;100.00;96284.47;6178238;23;20013;-62
2021/12/22 03:06:42;;;;;;;29.00;20.13;;;;;;;-6.77;100.00;96284.50;6178293;23;20005;-63
2021/12/22 03:09:17;;;;;;;29.35;19.77;;;;;;;-6.80;99.71;96285.41;6178115;23;20009;-63
2021/12/22 03:11:42;;;;;;;29.58;21.05;;;;;;;-6.79;100.00;96279.41;6178166;23;20005;-62
2021/12/22 03:14:07;;;;;;;24.83;17.65;;;;;;;-6.75;100.00;96282.75;6178189;23;20009;-63
2021/12/22 03:16:36;;;;;;;25.70;17.85;;;;;;;-6.79;100.00;96274.28;6179932;23;20088;-63
2021/12/22 03:19:03;;;;;;;31.02;18.85;;;;;;;-6.82;100.00;96278.59;6179618;22;20361;-62
2021/12/22 03:21:28;;;;;;;28.05;19.30;;;;;;;-6.84;100.00;96275.22;6179745;22;20005;-63
2021/12/22 03:23:55;;;;;;;31.90;22.60;;;;;;;-6.84;100.00;96272.66;6179684;23;20471;-63
2021/12/22 03:26:22;;;;;;;33.40;21.98;;;;;;;-6.86;99.88;96269.28;6179392;23;20513;-63
2021/12/22 03:28:48;;;;;;;29.77;19.10;;;;;;;-6.85;100.00;96274.41;6179508;23;20022;-63
2021/12/22 03:31:14;;;;;;;28.92;18.60;;;;;;;-6.84;100.00;96275.22;6179447;23;20066;-63
2021/12/22 03:33:40;;;;;;;26.20;18.02;;;;;;;-6.84;100.00;96277.78;6179458;23;20005;-63
2021/12/22 03:36:07;;;;;;;27.35;18.80;;;;;;;-6.86;100.00;96284.66;6179407;22;19997;-63
2021/12/22 03:38:34;;;;;;;27.10;19.92;;;;;;;-6.88;99.73;96276.13;6179568;23;20008;-63
2021/12/22 03:41:00;;;;;;;27.15;17.95;;;;;;;-6.92;99.94;96271.06;6179344;23;20076;-63
2021/12/22 03:43:26;;;;;;;41.95;22.00;;;;;;;-6.93;99.97;96274.50;6178516;23;20122;-62
2021/12/22 03:45:51;;;;;;;48.55;27.63;;;;;;;-6.91;100.00;96272.75;6180156;23;20403;-63
2021/12/22 03:48:18;;;;;;;50.83;28.40;;;;;;;-6.82;100.00;96279.47;6179425;23;20005;-63
2021/12/22 03:50:47;;;;;;;51.17;26.55;;;;;;;-6.81;100.00;96277.75;6179800;23;20009;-62
2021/12/22 03:53:13;;;;;;;45.00;25.73;;;;;;;-6.83;99.92;96280.34;6179426;23;20001;-63
2021/12/22 03:55:38;;;;;;;46.97;26.35;;;;;;;-6.87;99.94;96282.94;6179431;23;20001;-62
2021/12/22 03:58:04;;;;;;;45.28;25.98;;;;;;;-6.87;100.00;96288.06;6179689;23;20012;-62
2021/12/22 04:00:30;;;;;;;38.72;25.40;;;;;;;-6.91;100.00;96277.03;6179354;23;20645;-63
2021/12/22 04:02:56;;;;;;;48.33;25.83;;;;;;;-6.93;99.95;96281.31;6179470;23;20009;-64
2021/12/22 04:05:22;;;;;;;44.80;24.95;;;;;;;-6.94;100.00;96289.88;6179659;23;20017;-63
2021/12/22 04:07:47;;;;;;;42.45;24.88;;;;;;;-6.96;100.00;96277.09;6179748;23;20008;-63
2021/12/22 04:10:20;;;;;;;38.20;23.40;;;;;;;-6.96;100.00;96282.22;6179401;23;20005;-63
2021/12/22 04:12:51;;;;;;;45.58;25.60;;;;;;;-6.96;100.00;96289.91;6179525;23;20009;-63
2021/12/22 04:15:17;;;;;;;39.97;23.73;;;;;;;-6.94;100.00;96290.72;6179646;23;20016;-63
2021/12/22 04:17:43;;;;;;;42.13;23.33;;;;;;;-6.96;100.00;96284.78;6179596;23;20001;-62
2021/12/22 04:20:09;;;;;;;45.03;25.42;;;;;;;-6.94;99.84;96275.38;6179583;23;20127;-63
2021/12/22 04:22:35;;;;;;;36.80;23.23;;;;;;;-6.91;100.00;96277.88;6179576;23;20028;-63
2021/12/22 04:25:01;;;;;;;32.63;21.40;;;;;;;-6.88;99.93;96282.09;6179488;23;20472;-63
2021/12/22 04:27:26;;;;;;;37.38;22.90;;;;;;;-6.86;100.00;96284.66;6179413;23;20005;-62
2021/12/22 04:29:51;;;;;;;31.10;20.73;;;;;;;-6.88;99.48;96283.81;6179484;23;20012;-63
2021/12/22 04:32:17;;;;;;;33.00;20.83;;;;;;;-6.97;99.41;96285.63;6179583;23;20055;-63
2021/12/22 04:34:42;;;;;;;37.47;21.73;;;;;;;-7.00;100.00;96283.09;6179449;23;20425;-63
2021/12/22 04:37:07;;;;;;;33.85;20.15;;;;;;;-7.03;100.00;96288.28;6153081;23;20028;-63
2021/12/22 04:39:33;;;;;;;27.98;20.77;;;;;;;-7.02;100.00;96287.41;6179554;23;20001;-63
2021/12/22 04:42:02;;;;;;;29.67;19.42;;;;;;;-7.02;100.00;96289.13;6179632;23;20004;-63
2021/12/22 04:44:27;;;;;;;27.77;19.08;;;;;;;-7.05;99.89;96295.13;6153142;22;20357;-62
2021/12/22 04:46:53;;;;;;;29.00;18.17;;;;;;;-7.08;100.00;96297.72;6179505;23;20001;-63
2021/12/22 04:49:18;;;;;;;26.85;18.92;;;;;;;-7.10;100.00;96295.19;6179447;23;20032;-63
2021/12/22 04:51:50;;;;;;;23.75;17.38;;;;;;;-7.11;100.00;96302.91;6179462;23;20005;-62
2021/12/22 04:54:43;;;;;;;29.95;19.60;;;;;;;-7.15;100.00;96309.75;6179228;23;20618;-62
2021/12/22 04:57:03;;;;;;;26.60;17.15;;;;;;;-7.16;100.00;96309.78;6178029;23;20001;-62
2021/12/22 04:59:29;;;;;;;20.85;16.27;;;;;;;-7.19;100.00;96296.13;6179551;23;20131;-62
2021/12/22 05:01:56;;;;;;;24.17;16.80;;;;;;;-7.20;99.98;96302.13;6179526;23;20437;-63
2021/12/22 05:04:21;;;;;;;21.85;15.40;;;;;;;-7.19;100.00;96303.00;6179337;23;20048;-62
2021/12/22 05:06:47;;;;;;;25.92;16.58;;;;;;;-7.18;100.00;96307.25;6178804;23;20012;-63
2021/12/22 05:09:12;;;;;;;22.00;16.10;;;;;;;-7.20;100.00;96308.97;6179233;23;20495;-62
2021/12/22 05:11:39;;;;;;;24.27;16.15;;;;;;;-7.20;100.00;96307.25;6179434;23;20009;-62
2021/12/22 05:14:08;;;;;;;22.25;15.68;;;;;;;-7.16;100.00;96313.19;6179502;23;20027;-63
2021/12/22 05:16:45;;;;;;;20.92;15.63;;;;;;;-7.20;100.00;96312.38;6153063;23;20005;-62
2021/12/22 05:19:15;;;;;;;23.65;16.00;;;;;;;-7.19;100.00;96313.22;6179397;23;20060;-62
2021/12/22 05:21:44;;;;;;;21.92;14.63;;;;;;;-7.20;99.85;96311.53;6178749;23;20005;-62
2021/12/22 05:24:10;;;;;;;21.92;16.88;;;;;;;-7.18;99.70;96314.91;6179389;23;19997;-63
2021/12/22 05:26:36;;;;;;;28.00;19.45;;;;;;;-7.14;100.00;96316.56;6179447;23;20126;-63
2021/12/22 05:29:08;;;;;;;25.73;17.58;;;;;;;-7.14;99.38;96315.75;6179197;23;21922;-63
2021/12/22 05:31:36;;;;;;;26.77;18.38;;;;;;;-7.20;98.77;96311.53;6179225;23;20007;-63
2021/12/22 05:34:05;;;;;;;24.70;17.05;;;;;;;-7.22;99.29;96314.09;6179376;23;20510;-62
2021/12/22 05:36:31;;;;;;;22.77;16.65;;;;;;;-7.26;99.07;96315.00;6179275;23;20005;-62
2021/12/22 05:38:57;;;;;;;24.55;17.17;;;;;;;-7.26;99.71;96303.94;6178614;23;20482;-62
2021/12/22 05:41:23;;;;;;;26.38;16.58;;;;;;;-7.24;100.00;96305.59;6179178;23;20054;-63
2021/12/22 05:43:48;;;;;;;20.73;15.25;;;;;;;-7.23;100.00;96307.28;6178120;23;20009;-62
2021/12/22 05:46:14;;;;;;;24.80;16.25;;;;;;;-7.22;100.00;96303.88;6179175;23;20076;-62
2021/12/22 05:48:39;;;;;;;20.13;15.90;;;;;;;-7.19;100.00;96306.38;6179367;23;20090;-63
2021/12/22 05:51:05;;;;;;;22.15;16.83;;;;;;;-7.20;100.00;96304.69;6179046;23;20005;-62
2021/12/22 05:53:30;;;;;;;20.83;16.10;;;;;;;-7.22;99.84;96311.53;6179313;23;20006;-62
2021/12/22 05:55:57;;;;;;;20.45;15.85;;;;;;;-7.23;100.00;96303.91;6179044;23;20005;-62
2021/12/22 05:58:23;;;;;;;27.48;17.08;;;;;;;-7.24;100.00;96312.44;6179214;23;20027;-62
2021/12/22 06:00:49;;;;;;;22.52;17.33;;;;;;;-7.25;100.00;96303.91;6178663;23;20467;-63
2021/12/22 06:03:15;;;;;;;22.92;16.13;;;;;;;-7.23;100.00;96302.16;6179344;23;20005;-63
2021/12/22 06:05:41;;;;;;;21.95;16.10;;;;;;;-7.23;99.71;96304.72;6179235;23;20053;-62
2021/12/22 06:08:07;;;;;;;21.73;16.88;;;;;;;-7.22;99.72;96308.97;6179323;23;20348;-62
2021/12/22 06:10:34;;;;;;;20.98;16.15;;;;;;;-7.20;100.00;96311.53;6178980;23;20005;-62
2021/12/22 06:13:09;;;;;;;22.05;16.63;;;;;;;-7.22;100.00;96305.59;6179070;23;20072;-62
2021/12/22 06:15:37;;;;;;;27.58;21.50;;;;;;;-7.24;100.00;96308.16;6178863;23;20472;-63
2021/12/22 06:18:03;;;;;;;25.30;20.05;;;;;;;-7.20;100.00;96308.97;6178921;23;20005;-63
2021/12/22 06:20:31;;;;;;;30.80;21.33;;;;;;;-7.22;99.84;96311.53;6178369;23;20063;-63
2021/12/22 06:22:56;;;;;;;26.58;19.10;;;;;;;-7.22;100.00;96308.16;6179008;23;20530;-63
2021/12/22 06:25:23;;;;;;;24.55;20.00;;;;;;;-7.20;100.00;96311.53;6178979;23;20009;-63
2021/12/22 06:27:48;;;;;;;29.85;18.75;;;;;;;-7.23;100.00;96314.97;6178811;23;20024;-62
2021/12/22 06:30:13;;;;;;;29.38;19.70;;;;;;;-7.27;100.00;96321.00;6178332;23;20005;-63
2021/12/22 06:32:39;;;;;;;25.52;18.85;;;;;;;-7.26;99.43;96326.97;6178609;23;20322;-63
2021/12/22 06:35:06;;;;;;;32.15;21.25;;;;;;;-7.28;100.00;96318.47;6178938;23;20004;-62
2021/12/22 06:37:31;;;;;;;31.10;18.27;;;;;;;-7.32;100.00;96317.66;6179407;23;20005;-63
2021/12/22 06:39:57;;;;;;;26.35;17.67;;;;;;;-7.35;99.39;96321.06;6178861;23;20088;-63
2021/12/22 06:42:25;;;;;;;23.90;19.48;;;;;;;-7.36;100.00;96321.13;6178543;23;20005;-63
2021/12/22 06:44:51;;;;;;;29.20;20.35;;;;;;;-7.40;99.78;96325.41;6178766;23;20001;-63
2021/12/22 06:47:17;;;;;;;34.08;21.83;;;;;;;-7.38;99.81;96323.66;6179027;23;20036;-62
2021/12/22 06:49:43;;;;;;;35.45;22.52;;;;;;;-7.36;100.00;96326.22;6179755;23;20012;-63
2021/12/22 06:52:08;;;;;;;31.63;21.85;;;;;;;-7.37;99.99;96325.38;6178707;23;20005;-63
2021/12/22 06:54:34;;;;;;;33.67;22.92;;;;;;;-7.36;100.00;96326.22;6179903;23;20009;-63
2021/12/22 06:57:00;;;;;;;30.48;22.77;;;;;;;-7.37;100.00;96327.09;6179960;23;20416;-63
2021/12/22 06:59:25;;;;;;;31.33;22.20;;;;;;;-7.38;100.00;96333.06;6180066;23;20490;-63
2021/12/22 07:01:51;;;;;;;31.88;22.67;;;;;;;-7.41;99.22;96328.81;6180287;23;20005;-63
2021/12/22 07:04:19;;;;;;;31.35;21.92;;;;;;;-7.40;100.00;96332.25;6179824;23;20020;-63
2021/12/22 07:06:45;;;;;;;40.92;27.77;;;;;;;-7.42;100.00;96328.84;6180068;23;20020;-63
2021/12/22 07:09:10;;;;;;;47.35;32.13;;;;;;;-7.43;100.00;96335.69;6179678;23;20344;-63
2021/12/22 07:11:38;;;;;;;41.42;29.45;;;;;;;-7.43;99.54;96332.25;6179269;23;20005;-62
2021/12/22 07:14:06;;;;;;;36.70;25.95;;;;;;;-7.40;100.00;96334.81;6179925;23;20001;-62
2021/12/22 07:16:32;;;;;;;34.70;24.65;;;;;;;-7.41;99.83;96331.38;6180216;23;20352;-62
2021/12/22 07:18:57;;;;;;;40.50;26.65;;;;;;;-7.38;100.00;96343.31;6179232;23;20001;-62
2021/12/22 07:21:23;;;;;;;34.70;26.98;;;;;;;-7.38;100.00;96349.25;6179743;23;20001;-62
2021/12/22 07:23:49;;;;;;;37.58;28.00;;;;;;;-7.35;100.00;96348.38;6179215;23;20001;-62
2021/12/22 07:26:14;;;;;;;34.97;24.60;;;;;;;-7.32;100.00;96353.47;6179836;23;20084;-61
2021/12/22 07:28:45;;;;;;;29.25;23.10;;;;;;;-7.31;100.00;96357.72;6179134;23;20339;-62
2021/12/22 07:31:12;;;;;;;34.28;22.45;;;;;;;-7.33;99.70;96356.91;6179794;23;20012;-64
2021/12/22 07:33:38;;;;;;;31.60;23.27;;;;;;;-7.30;100.00;96356.84;6178973;23;20008;-62
2021/12/22 07:36:05;;;;;;;27.48;19.80;;;;;;;-7.30;100.00;96351.75;6179106;23;20012;-61
2021/12/22 07:38:39;;;;;;;26.92;19.77;;;;;;;-7.29;100.00;96358.53;6152314;23;20077;-59
2021/12/22 07:41:06;;;;;;;26.42;17.33;;;;;;;-7.28;100.00;96350.00;6179530;23;20390;-62
2021/12/22 07:43:33;;;;;;;34.88;19.65;;;;;;;-7.32;100.00;96350.91;6178916;23;20009;-62
2021/12/22 07:45:59;;;;;;;21.85;17.92;;;;;;;-7.29;100.00;96358.53;6178708;23;20029;-62
2021/12/22 07:48:25;;;;;;;27.20;18.25;;;;;;;-7.24;100.00;96350.84;6178987;23;20012;-60
2021/12/22 07:50:51;;;;;;;29.83;18.90;;;;;;;-7.23;100.00;96361.03;6178362;23;20009;-57
2021/12/22 07:53:17;;;;;;;28.67;21.42;;;;;;;-7.22;100.00;96361.91;6178104;23;20001;-52
2021/12/22 07:55:42;;;;;;;29.38;22.02;;;;;;;-7.19;100.00;96362.69;6178158;23;20011;-55
2021/12/22 07:58:08;;;;;;;29.85;22.30;;;;;;;-7.20;99.83;96366.09;6178532;23;20080;-54
2021/12/22 08:00:35;;;;;;;26.17;21.92;;;;;;;-7.13;100.00;96371.19;6179107;23;20028;-55
2021/12/22 08:03:00;;;;;;;29.77;25.00;;;;;;;-7.09;100.00;96367.72;6178958;23;20005;-56
2021/12/22 08:05:26;;;;;;;40.17;27.60;;;;;;;-7.05;100.00;96371.94;6179317;23;20066;-57
2021/12/22 08:07:51;;;;;;;52.35;36.97;;;;;;;-7.02;100.00;96369.31;6179431;23;20041;-54
2021/12/22 08:10:17;;;;;;;48.33;37.47;;;;;;;-7.01;100.00;96377.88;6179284;22;20009;-56
2021/12/22 08:12:42;;;;;;;48.10;33.60;;;;;;;-7.05;100.00;96387.28;6178840;23;20005;-56
2021/12/22 08:15:08;;;;;;;69.90;44.13;;;;;;;-7.06;99.78;96378.78;6179685;23;20005;-54
2021/12/22 08:17:34;;;;;;;73.78;45.35;;;;;;;-7.05;99.75;96392.41;6179650;23;20443;-54
2021/12/22 08:20:02;;;;;;;56.00;36.95;;;;;;;-7.05;100.00;96383.03;6179547;23;20003;-53
2021/12/22 08:22:28;;;;;;;58.00;37.75;;;;;;;-6.99;100.00;96382.09;6178976;23;20035;-56
2021/12/22 08:24:53;;;;;;;46.67;33.30;;;;;;;-6.92;100.00;96385.44;6179199;23;19997;-54
2021/12/22 08:27:21;;;;;;;45.65;33.08;;;;;;;-6.88;100.00;96387.06;6179696;23;20327;-55
2021/12/22 08:29:47;;;;;;;49.38;34.40;;;;;;;-6.85;99.85;96383.66;6179747;22;20383;-54
2021/12/22 08:32:13;;;;;;;53.05;35.67;;;;;;;-6.86;99.94;96380.22;6179559;23;20040;-54
2021/12/22 08:34:41;;;;;;;42.35;31.75;;;;;;;-6.84;99.86;96381.06;6179677;22;20059;-55
2021/12/22 08:39:52;;;;;;;38.53;30.92;;;;;;;-6.84;99.97;96393.03;6179488;23;20584;-57
2021/12/22 08:42:19;;;;;;;37.60;30.58;;;;;;;-6.86;99.81;96387.06;6179465;23;20080;-54
2021/12/22 08:44:44;;;;;;;37.00;29.70;;;;;;;-6.83;99.81;96387.03;6179464;23;20076;-56
2021/12/22 08:47:10;;;;;;;34.63;29.52;;;;;;;-6.83;100.00;96387.03;6179453;23;20055;-56
2021/12/22 08:49:35;;;;;;;35.65;30.88;;;;;;;-6.84;100.00;96391.31;6153008;23;20013;-56
2021/12/22 08:52:01;;;;;;;36.20;28.90;;;;;;;-6.82;99.90;96397.28;6179370;23;20009;-55
2021/12/22 08:54:28;;;;;;;37.50;31.33;;;;;;;-6.79;100.00;96399.78;6179492;23;20012;-54
2021/12/22 08:56:55;;;;;;;40.95;28.10;;;;;;;-6.76;100.00;96399.75;6179318;23;20013;-57
2021/12/22 08:59:21;;;;;;;30.83;25.90;;;;;;;-6.71;100.00;96398.84;6179403;23;20122;-56
2021/12/22 09:01:47;;;;;;;31.60;27.02;;;;;;;-6.67;100.00;96406.47;6179245;23;20006;-56
2021/12/22 09:04:13;;;;;;;36.42;26.48;;;;;;;-6.66;100.00;96409.84;6179163;23;20364;-55
2021/12/22 09:06:38;;;;;;;40.78;29.73;;;;;;;-6.65;100.00;96404.72;6179521;23;20005;-56
2021/12/22 09:09:06;;;;;;;44.00;29.42;;;;;;;-6.58;100.00;96407.22;6179213;23;20008;-56
2021/12/22 09:11:31;;;;;;;34.92;27.63;;;;;;;-6.57;100.00;96403.78;6179656;23;20092;-57
2021/12/22 09:13:57;;;;;;;34.38;27.38;;;;;;;-6.57;99.74;96399.50;6179363;23;20024;-57
2021/12/22 09:16:22;;;;;;;38.83;28.98;;;;;;;-6.53;100.00;96400.31;6179403;23;20467;-55
2021/12/22 09:18:48;;;;;;;37.55;28.42;;;;;;;-6.50;100.00;96403.69;6179373;23;20478;-54
2021/12/22 09:21:13;;;;;;;60.28;30.88;;;;;;;-6.40;100.00;96401.84;6179112;23;20352;-57
2021/12/22 09:23:40;;;;;;;45.88;32.50;;;;;;;-6.30;100.00;96394.88;6179384;23;20224;-57
2021/12/22 09:26:05;;;;;;;45.13;34.55;;;;;;;-6.23;100.00;96398.19;6179628;23;20004;-54
2021/12/22 09:28:32;;;;;;;39.13;32.03;;;;;;;-6.24;99.80;96394.78;6179376;23;20005;-54
2021/12/22 09:30:57;;;;;;;41.45;32.00;;;;;;;-6.25;99.83;96402.50;6179125;23;20012;-54
2021/12/22 09:33:25;;;;;;;42.38;31.85;;;;;;;-6.22;100.00;96397.31;6179280;23;20005;-56
2021/12/22 09:35:52;;;;;;;47.00;32.92;;;;;;;-6.15;100.00;96403.22;6179318;23;20023;-57
2021/12/22 09:38:18;;;;;;;41.97;32.60;;;;;;;-6.02;100.00;96406.44;6179296;23;20015;-58
2021/12/22 09:40:45;;;;;;;40.65;34.13;;;;;;;-5.72;100.00;96399.09;6179081;23;20001;-56
2021/12/22 09:43:10;;;;;;;43.40;35.17;;;;;;;-5.22;100.00;96401.66;6179214;23;20031;-54
2021/12/22 09:45:42;;;;;;;45.22;36.88;;;;;;;-4.63;100.00;96405.66;6178476;23;20005;-55
2021/12/22 09:50:45;;;;;;;72.45;54.75;;;;;;;-3.72;97.15;96405.34;6179647;23;20013;-55
2021/12/22 09:53:12;;;;;;;45.83;33.75;;;;;;;-3.37;96.08;96397.63;6178964;23;20001;-56
2021/12/22 09:55:38;;;;;;;33.70;25.23;;;;;;;-3.04;95.13;96408.78;6179234;23;20005;-54
2021/12/22 09:58:04;;;;;;;28.52;22.40;;;;;;;-2.76;95.26;96399.47;6178982;23;20005;-54
2021/12/22 10:00:33;;;;;;;25.80;20.30;;;;;;;-2.50;94.29;96401.28;6179135;23;20068;-56
2021/12/22 10:02:59;;;;;;;37.80;28.23;;;;;;;-2.31;94.63;96391.28;6178905;23;20012;-56
2021/12/22 10:05:24;;;;;;;33.03;27.65;;;;;;;-2.15;94.66;96390.81;6179188;23;20005;-58
2021/12/22 10:08:11;;;;;;;29.80;24.67;;;;;;;-1.92;93.63;96382.34;6179044;23;20005;-57
2021/12/22 10:10:40;;;;;;;30.58;24.85;;;;;;;-1.65;91.02;96384.13;6179123;23;20017;-58
2021/12/22 10:13:11;;;;;;;26.48;21.15;;;;;;;-1.48;90.25;96379.22;6178611;23;20334;-55
2021/12/22 10:15:37;;;;;;;20.83;18.38;;;;;;;-1.48;88.53;96374.03;6179045;23;20393;-56
2021/12/22 10:18:16;;;;;;;28.10;19.95;;;;;;;-1.37;88.82;96381.44;6179257;22;20353;-57
2021/12/22 10:20:44;;;;;;;19.85;15.60;;;;;;;-1.28;87.47;96377.69;6178929;23;20009;-57
2021/12/22 10:23:27;;;;;;;18.30;16.33;;;;;;;-0.98;89.21;96372.38;6178558;23;20008;-56
2021/12/22 10:26:04;;;;;;;17.42;15.18;;;;;;;-0.76;88.09;96374.19;6178578;23;20005;-57
2021/12/22 10:28:44;;;;;;;20.92;16.13;;;;;;;-0.59;86.78;96370.97;6178911;23;20001;-57
2021/12/22 10:31:11;;;;;;;18.63;15.60;;;;;;;-0.50;87.04;96372.38;6178781;23;20048;-58
2021/12/22 10:33:39;;;;;;;19.80;16.95;;;;;;;-0.34;88.53;96365.72;6152438;23;20001;-57
2021/12/22 10:36:18;;;;;;;21.08;16.08;;;;;;;-0.13;88.87;96377.91;6178677;23;20337;-56
2021/12/22 10:38:50;;;;;;;19.35;15.73;;;;;;;-0.13;88.18;96373.56;6178868;23;20088;-57
2021/12/22 10:41:15;;;;;;;21.40;16.38;;;;;;;-0.11;85.65;96371.78;6179011;23;20005;-58
2021/12/22 10:43:48;;;;;;;17.38;13.70;;;;;;;0.05;85.60;96358.22;6152454;23;20062;-55
2021/12/22 10:46:26;;;;;;;30.50;16.75;;;;;;;0.19;83.53;96361.09;6178407;23;20456;-57
2021/12/22 10:49:14;;;;;;;17.10;13.90;;;;;;;0.49;87.85;96354.75;6178846;23;20031;-58
2021/12/22 10:51:42;;;;;;;15.48;12.50;;;;;;;0.48;83.06;96356.47;6178584;23;20042;-57
2021/12/22 10:54:15;;;;;;;16.25;13.10;;;;;;;0.69;86.12;96351.28;6178603;23;20474;-58
2021/12/22 10:56:46;;;;;;;17.88;14.45;;;;;;;0.85;83.23;96348.88;6178524;23;20023;-58
2021/12/22 10:59:15;;;;;;;17.17;13.25;;;;;;;0.98;84.02;96342.28;6178679;23;20063;-58
2021/12/22 11:02:06;;;;;;;17.40;11.25;;;;;;;0.98;83.26;96338.81;6178567;23;20032;-56
2021/12/22 11:04:33;;;;;;;15.65;11.38;;;;;;;0.98;82.47;96336.22;6178338;22;20020;-58
2021/12/22 11:07:28;;;;;;;19.35;12.10;;;;;;;1.03;79.87;96334.31;6152178;22;20504;-57
2021/12/22 11:09:55;;;;;;;18.38;13.50;;;;;;;1.04;79.86;96330.78;6177843;23;20547;-58
2021/12/22 11:12:38;;;;;;;15.40;13.80;;;;;;;1.05;81.12;96329.88;6178443;23;20009;-59
2021/12/22 11:15:05;;;;;;;13.55;12.15;;;;;;;1.12;80.52;96328.69;6178314;23;20479;-56
2021/12/22 11:17:31;;;;;;;14.88;12.30;;;;;;;1.33;78.58;96326.06;6178630;23;20341;-58
2021/12/22 11:20:04;;;;;;;16.27;13.57;;;;;;;1.65;79.15;96325.50;6178276;23;20012;-58
2021/12/22 11:22:39;;;;;;;19.23;16.02;;;;;;;1.79;78.19;96327.44;6178454;23;20009;-58
2021/12/22 11:25:06;;;;;;;19.88;16.02;;;;;;;2.07;78.60;96320.91;6178284;23;20508;-59
2021/12/22 11:27:34;;;;;;;25.08;17.65;;;;;;;2.56;77.07;96315.06;6178333;23;20014;-56